Time;durP1;ratioP1;P1;durP2;ratioP2;P2;SDS_P1;SDS_P2;PMS_P1;PMS_P2;Temp;Humidity;BMP_temperature;BMP_pressure;BME280_temperature;BME280_humidity;BME280_pressure;Samples;Min_cycle;Max_cycle;Signal;HPM_P1;HPM_P2
2022/11/23 00:02:04;;;;;;;;;;;;;;;-143.57;100.00;51430.22;5078566;28;19974;-65
2022/11/23 00:04:30;;;;;;;;;;;;;;;-143.57;100.00;51438.16;5078660;28;19931;-64
2022/11/23 00:06:57;;;;;;;;;;;;;;;-143.57;100.00;51426.25;5081224;28;20042;-65
2022/11/23 00:09:24;;;;;;;;;;;;;;;-143.57;100.00;51446.13;5081219;28;19928;-64
2022/11/23 00:11:50;;;;;;;;;;;;;;;-143.57;100.00;51430.22;5077079;28;19955;-64
2022/11/23 00:14:17;;;;;;;;;;;;;;;-143.57;100.00;51466.00;5075792;28;19924;-65
2022/11/23 00:16:44;;;;;;;;;;;;;;;-143.57;100.00;51418.28;5076804;28;20635;-64
2022/11/23 00:19:10;;;;;;;;;;;;;;;-143.57;100.00;51469.97;5077002;28;19931;-64
2022/11/23 00:21:37;;;;;;;;;;;;;;;-143.57;100.00;51440.16;5078189;28;19954;-64
2022/11/23 00:24:04;;;;;;;;;;;;;;;-143.57;100.00;51422.25;5076886;28;19997;-64
2022/11/23 00:26:30;;;;;;;;;;;;;;;-143.57;100.00;51450.09;5075450;28;20609;-64
2022/11/23 00:28:57;;;;;;;;;;;;;;;-143.57;100.00;51442.16;5082130;28;20013;-65
2022/11/23 00:31:25;;;;;;;;;;;;;;;-143.57;100.00;51414.31;5076151;28;19961;-64
2022/11/23 00:33:53;;;;;;;;;;;;;;;-143.57;100.00;51471.97;5080937;28;19946;-65
2022/11/23 00:36:20;;;;;;;;;;;;;;;-143.57;100.00;51458.03;5075324;28;19927;-64
2022/11/23 00:38:47;;;;;;;;;;;;;;;-143.57;100.00;51414.31;5082701;28;20231;-64
2022/11/23 00:41:18;;;;;;;;;;;;;;;-143.57;100.00;51452.09;5076659;28;19932;-64
2022/11/23 00:43:45;;;;;;;;;;;;;;;-143.57;100.00;51442.16;5095018;27;21352;-64
2022/11/23 00:46:12;;;;;;;;;;;;;;;-143.57;100.00;51454.06;5076648;28;20499;-64
2022/11/23 00:48:40;;;;;;;;;;;;;;;-143.57;100.00;51430.22;5080220;28;19935;-64
2022/11/23 00:51:08;;;;;;;;;;;;;;;-143.57;100.00;51438.16;5078076;28;19936;-64
2022/11/23 00:53:35;;;;;;;;;;;;;;;-143.57;100.00;51428.22;5072439;28;20458;-64
2022/11/23 00:56:02;;;;;;;;;;;;;;;-143.57;100.00;51410.34;5080166;28;19935;-64
2022/11/23 00:58:29;;;;;;;;;;;;;;;-143.57;100.00;51446.13;5076927;28;19932;-64
2022/11/23 01:01:03;;;;;;;;;;;;;;;-143.57;100.00;51422.25;5078586;28;19932;-64
2022/11/23 01:03:33;;;;;;;;;;;;;;;-143.57;100.00;51402.38;5093388;27;19932;-64
2022/11/23 01:06:01;;;;;;;;;;;;;;;-143.57;100.00;51434.19;5079348;28;19928;-65
2022/11/23 01:08:27;;;;;;;;;;;;;;;-143.57;100.00;51430.22;5076772;28;19932;-64
2022/11/23 01:10:57;;;;;;;;;;;;;;;-143.57;100.00;51438.16;5080063;28;19936;-64
2022/11/23 01:13:24;;;;;;;;;;;;;;;-143.57;100.00;51440.16;5078612;28;19924;-64
2022/11/23 01:15:51;;;;;;;;;;;;;;;-143.57;100.00;51430.22;5079692;28;19928;-64
2022/11/23 01:18:18;;;;;;;;;;;;;;;-143.57;100.00;51454.06;5075272;28;19931;-64
2022/11/23 01:20:44;;;;;;;;;;;;;;;-143.57;100.00;51438.16;5074283;28;19932;-64
2022/11/23 01:23:11;;;;;;;;;;;;;;;-143.57;100.00;51438.16;5077826;28;20020;-64
2022/11/23 01:25:40;;;;;;;;;;;;;;;-143.57;100.00;51450.09;5074216;28;19935;-65
2022/11/23 01:28:07;;;;;;;;;;;;;;;-143.57;100.00;51454.06;5075997;28;19928;-65
2022/11/23 01:30:35;;;;;;;;;;;;;;;-143.57;100.00;51442.16;5078651;28;19936;-65
2022/11/23 01:33:02;;;;;;;;;;;;;;;-143.57;100.00;51430.22;5077453;28;19959;-65
2022/11/23 01:35:29;;;;;;;;;;;;;;;-143.57;100.00;51434.19;5074469;28;19932;-65
2022/11/23 01:37:56;;;;;;;;;;;;;;;-143.57;100.00;51440.16;5077177;28;19931;-65
2022/11/23 01:40:23;;;;;;;;;;;;;;;-143.57;100.00;51464.00;5077412;28;19924;-65
2022/11/23 01:42:52;;;;;;;;;;;;;;;-143.57;100.00;51466.00;5081814;28;19994;-65
2022/11/23 01:45:35;;;;;;;;;;;;;;;-143.57;100.00;51446.13;5092346;27;19932;-65
2022/11/23 01:48:04;;;;;;;;;;;;;;;-143.57;100.00;51418.28;5095594;27;19928;-65
2022/11/23 01:50:31;;;;;;;;;;;;;;;-143.57;100.00;51410.34;5073791;28;19966;-65
2022/11/23 01:52:58;;;;;;;;;;;;;;;-143.57;100.00;51473.94;5078500;28;19985;-65
2022/11/23 01:55:25;;;;;;;;;;;;;;;-143.57;100.00;51452.09;5076195;28;20026;-65
2022/11/23 01:57:52;;;;;;;;;;;;;;;-143.57;100.00;51458.03;5095243;28;19927;-65
2022/11/23 02:00:21;;;;;;;;;;;;;;;-143.57;100.00;51438.16;5078272;28;20042;-65
2022/11/23 02:02:54;;;;;;;;;;;;;;;-143.57;100.00;51442.16;5078069;28;20005;-65
2022/11/23 02:05:22;;;;;;;;;;;;;;;-143.57;100.00;51442.16;5078669;28;19924;-65
2022/11/23 02:07:50;;;;;;;;;;;;;;;-143.57;100.00;51434.19;5076203;28;19932;-65
2022/11/23 02:10:17;;;;;;;;;;;;;;;-143.57;100.00;51446.13;5077696;28;20013;-65
2022/11/23 02:12:44;;;;;;;;;;;;;;;-143.57;100.00;51434.19;5072273;28;19936;-65
2022/11/23 02:15:11;;;;;;;;;;;;;;;-143.57;100.00;51473.94;5078784;28;20611;-64
2022/11/23 02:17:40;;;;;;;;;;;;;;;-143.57;100.00;51430.22;5074502;28;20023;-65
2022/11/23 02:20:08;;;;;;;;;;;;;;;-143.57;100.00;51438.16;5074690;28;19923;-65
2022/11/23 02:22:47;;;;;;;;;;;;;;;-143.57;100.00;51456.06;5073835;28;19928;-65
2022/11/23 02:25:20;;;;;;;;;;;;;;;-143.57;100.00;51458.03;5079977;28;19924;-65
2022/11/23 02:27:47;;;;;;;;;;;;;;;-143.57;100.00;51458.03;5072762;28;19924;-65
2022/11/23 02:30:14;;;;;;;;;;;;;;;-143.57;100.00;51444.13;5088740;28;19993;-65
2022/11/23 02:32:41;;;;;;;;;;;;;;;-143.57;100.00;51432.19;5090992;28;20633;-65
2022/11/23 02:35:09;;;;;;;;;;;;;;;-143.57;100.00;51469.97;5076698;28;19955;-65
2022/11/23 02:37:36;;;;;;;;;;;;;;;-143.57;100.00;51446.13;5076408;28;19985;-65
2022/11/23 02:40:10;;;;;;;;;;;;;;;-143.57;100.00;51448.09;5095743;27;19931;-66
2022/11/23 02:42:36;;;;;;;;;;;;;;;-143.57;100.00;51462.03;5082911;28;19924;-65
2022/11/23 02:45:07;;;;;;;;;;;;;;;-143.57;100.00;51442.16;5076777;28;19928;-65
2022/11/23 02:47:35;;;;;;;;;;;;;;;-143.57;100.00;51432.19;5079328;28;20622;-65
2022/11/23 02:50:02;;;;;;;;;;;;;;;-143.57;100.00;51450.09;5083529;28;19928;-65
2022/11/23 02:52:29;;;;;;;;;;;;;;;-143.57;100.00;51440.16;5081629;28;19978;-65
2022/11/23 02:54:55;;;;;;;;;;;;;;;-143.57;100.00;51458.03;5093510;27;19978;-65
2022/11/23 02:57:22;;;;;;;;;;;;;;;-143.57;100.00;51462.03;5087183;28;19928;-65
2022/11/23 02:59:49;;;;;;;;;;;;;;;-143.57;100.00;51442.16;5081865;27;19932;-65
2022/11/23 03:02:15;;;;;;;;;;;;;;;-143.57;100.00;51466.00;5080595;28;20012;-65
2022/11/23 03:04:42;;;;;;;;;;;;;;;-143.57;100.00;51469.97;5074493;28;19931;-65
2022/11/23 03:07:09;;;;;;;;;;;;;;;-143.57;100.00;51430.22;5077428;28;19967;-65
2022/11/23 03:09:37;;;;;;;;;;;;;;;-143.57;100.00;51479.91;5077138;28;19924;-65
2022/11/23 03:12:04;;;;;;;;;;;;;;;-143.57;100.00;51473.94;5078819;28;19936;-65
2022/11/23 03:14:31;;;;;;;;;;;;;;;-143.57;100.00;51422.25;5091995;27;19939;-65
2022/11/23 03:16:58;;;;;;;;;;;;;;;-143.57;100.00;51466.00;5076880;28;19946;-65
2022/11/23 03:19:28;;;;;;;;;;;;;;;-143.57;100.00;51446.13;5082256;28;19925;-65
2022/11/23 03:21:55;;;;;;;;;;;;;;;-143.57;100.00;51420.28;5077293;28;20330;-66
2022/11/23 03:24:22;;;;;;;;;;;;;;;-143.57;100.00;51440.16;5081676;28;19928;-66
2022/11/23 03:26:50;;;;;;;;;;;;;;;-143.57;100.00;51477.94;5081501;28;19928;-66
2022/11/23 03:29:18;;;;;;;;;;;;;;;-143.57;100.00;51493.84;5079395;28;19959;-66
2022/11/23 03:31:46;;;;;;;;;;;;;;;-143.57;100.00;51442.16;5092838;27;19928;-66
2022/11/23 03:34:14;;;;;;;;;;;;;;;-143.57;100.00;51491.84;5093150;27;19935;-66
2022/11/23 03:36:43;;;;;;;;;;;;;;;-143.57;100.00;51430.22;5076742;28;19932;-66
2022/11/23 03:39:10;;;;;;;;;;;;;;;-143.57;100.00;51434.19;5064729;28;19931;-66
2022/11/23 03:41:49;;;;;;;;;;;;;;;-143.57;100.00;51442.16;5074744;28;19924;-66
2022/11/23 03:44:17;;;;;;;;;;;;;;;-143.57;100.00;51448.09;5080112;28;19980;-66
2022/11/23 03:46:44;;;;;;;;;;;;;;;-143.57;100.00;51430.22;5084858;28;20778;-66
2022/11/23 03:49:11;;;;;;;;;;;;;;;-143.57;100.00;51446.13;5082661;28;19994;-66
2022/11/23 03:51:38;;;;;;;;;;;;;;;-143.57;100.00;51454.06;5084663;28;19932;-66
2022/11/23 03:54:06;;;;;;;;;;;;;;;-143.57;100.00;51422.25;5080317;28;19928;-66
2022/11/23 03:56:33;;;;;;;;;;;;;;;-143.57;100.00;51452.09;5077603;28;19936;-66
2022/11/23 03:59:00;;;;;;;;;;;;;;;-143.57;100.00;51466.00;5073613;28;19928;-65
2022/11/23 04:01:27;;;;;;;;;;;;;;;-143.57;100.00;51442.16;5079643;28;20015;-66
2022/11/23 04:03:59;;;;;;;;;;;;;;;-143.57;100.00;51466.00;5076318;28;19924;-66
2022/11/23 04:06:52;;;;;;;;;;;;;;;-143.57;100.00;51462.03;5080266;28;19924;-66
2022/11/23 04:09:29;;;;;;;;;;;;;;;-143.57;100.00;51466.00;5073317;28;19928;-66
2022/11/23 04:12:19;;;;;;;;;;;;;;;-143.57;100.00;51481.91;5076612;28;20781;-64
2022/11/23 04:14:46;;;;;;;;;;;;;;;-143.57;100.00;51422.25;5074367;28;19945;-64
2022/11/23 04:17:12;;;;;;;;;;;;;;;-143.57;100.00;51440.16;5076564;28;20008;-65
2022/11/23 04:19:39;;;;;;;;;;;;;;;-143.57;100.00;51462.03;5077241;28;20507;-65
2022/11/23 04:22:08;;;;;;;;;;;;;;;-143.57;100.00;51446.13;5078781;28;20012;-65
2022/11/23 04:24:39;;;;;;;;;;;;;;;-143.57;100.00;51462.03;5073577;28;19935;-65
2022/11/23 04:27:07;;;;;;;;;;;;;;;-143.57;100.00;51501.78;5079998;28;19928;-65
2022/11/23 04:29:35;;;;;;;;;;;;;;;-143.57;100.00;51442.16;5075429;28;19943;-65
2022/11/23 04:32:02;;;;;;;;;;;;;;;-143.57;100.00;51462.03;5076112;28;19929;-65
2022/11/23 04:34:29;;;;;;;;;;;;;;;-143.57;100.00;51436.19;5074538;28;19932;-65
2022/11/23 04:36:56;;;;;;;;;;;;;;;-143.57;100.00;51456.06;5078138;28;20090;-65
2022/11/23 04:39:29;;;;;;;;;;;;;;;-143.57;100.00;51464.00;5079605;28;20298;-65
2022/11/23 04:42:16;;;;;;;;;;;;;;;-143.57;100.00;51466.00;5077429;28;20002;-65
2022/11/23 04:45:01;;;;;;;;;;;;;;;-143.57;100.00;51466.00;5080968;28;19932;-65
2022/11/23 04:47:29;;;;;;;;;;;;;;;-143.57;100.00;51477.94;5079839;28;20689;-65
2022/11/23 04:49:59;;;;;;;;;;;;;;;-143.57;100.00;51454.06;5078660;28;19927;-65
2022/11/23 04:52:26;;;;;;;;;;;;;;;-143.57;100.00;51442.16;5072288;28;20014;-65
2022/11/23 04:54:54;;;;;;;;;;;;;;;-143.57;100.00;51446.13;5076567;28;20698;-66
2022/11/23 04:57:22;;;;;;;;;;;;;;;-143.57;100.00;51513.72;5073127;28;19931;-66
2022/11/23 04:59:51;;;;;;;;;;;;;;;-143.57;100.00;51462.03;5074814;28;19928;-65
2022/11/23 05:02:17;;;;;;;;;;;;;;;-143.57;100.00;51446.13;5077248;28;19960;-65
2022/11/23 05:05:07;;;;;;;;;;;;;;;-143.57;100.00;51430.22;5082649;28;20075;-65
2022/11/23 05:07:33;;;;;;;;;;;;;;;-143.57;100.00;51485.88;5074542;28;19951;-66
2022/11/23 05:10:02;;;;;;;;;;;;;;;-143.57;100.00;51454.06;5092570;27;19928;-66
2022/11/23 05:12:31;;;;;;;;;;;;;;;-143.57;100.00;51473.94;5078267;28;20696;-66
2022/11/23 05:14:59;;;;;;;;;;;;;;;-143.57;100.00;51442.16;5079694;28;19928;-66
2022/11/23 05:17:33;;;;;;;;;;;;;;;-143.57;100.00;51469.97;5078940;27;19955;-66
2022/11/23 05:20:00;;;;;;;;;;;;;;;-143.57;100.00;51438.16;5073737;28;19974;-65
2022/11/23 05:22:29;;;;;;;;;;;;;;;-143.57;100.00;51469.97;5093329;27;19927;-66
2022/11/23 05:24:56;;;;;;;;;;;;;;;-143.57;100.00;51450.09;5070839;28;19940;-66
2022/11/23 05:27:24;;;;;;;;;;;;;;;-143.57;100.00;51481.91;5076094;28;19936;-65
2022/11/23 05:29:51;;;;;;;;;;;;;;;-143.57;100.00;51422.25;5074390;28;19959;-65
2022/11/23 05:32:18;;;;;;;;;;;;;;;-143.57;100.00;51464.00;5074412;28;19930;-66
2022/11/23 05:34:44;;;;;;;;;;;;;;;-143.57;100.00;51477.94;5075424;28;19959;-64
2022/11/23 05:37:13;;;;;;;;;;;;;;;-143.57;100.00;51462.03;5080861;28;20369;-65
2022/11/23 05:39:56;;;;;;;;;;;;;;;-143.57;100.00;51497.81;5096409;28;19924;-66
2022/11/23 05:42:24;;;;;;;;;;;;;;;-143.57;100.00;51477.94;5078593;28;19938;-66
2022/11/23 05:44:58;;;;;;;;;;;;;;;-143.57;100.00;51464.00;5094971;27;20803;-65
2022/11/23 05:47:34;;;;;;;;;;;;;;;-143.57;100.00;51469.97;5077233;28;19947;-63
2022/11/23 05:50:04;;;;;;;;;;;;;;;-143.57;100.00;51509.72;5073359;28;20413;-65
2022/11/23 05:52:31;;;;;;;;;;;;;;;-143.57;100.00;51466.00;5062476;28;20590;-65
2022/11/23 05:54:58;;;;;;;;;;;;;;;-143.57;100.00;51473.94;5081933;28;20333;-65
2022/11/23 05:57:25;;;;;;;;;;;;;;;-143.57;100.00;51458.03;5077432;28;19928;-64
2022/11/23 05:59:51;;;;;;;;;;;;;;;-143.57;100.00;51477.94;5075811;28;20019;-64
2022/11/23 06:02:23;;;;;;;;;;;;;;;-143.57;100.00;51422.25;5087678;28;19931;-65
2022/11/23 06:04:54;;;;;;;;;;;;;;;-143.57;100.00;51458.03;5091505;28;20027;-65
2022/11/23 06:07:31;;;;;;;;;;;;;;;-143.57;100.00;51422.25;5089405;28;19932;-65
2022/11/23 06:10:06;;;;;;;;;;;;;;;-143.57;100.00;51438.16;5076250;28;20669;-64
2022/11/23 06:12:36;;;;;;;;;;;;;;;-143.57;100.00;51477.94;5073153;28;19928;-65
2022/11/23 06:15:07;;;;;;;;;;;;;;;-143.57;100.00;51469.97;5077958;27;19932;-65
2022/11/23 06:17:34;;;;;;;;;;;;;;;-143.57;100.00;51442.16;5075183;28;19936;-65
2022/11/23 06:20:05;;;;;;;;;;;;;;;-143.57;100.00;51475.94;5086065;28;20438;-65
2022/11/23 06:22:34;;;;;;;;;;;;;;;-143.57;100.00;51466.00;5092043;28;20606;-67
2022/11/23 06:25:04;;;;;;;;;;;;;;;-143.57;100.00;51446.13;5075891;28;19928;-64
2022/11/23 06:27:51;;;;;;;;;;;;;;;-143.57;100.00;51442.16;5091255;28;19935;-65
2022/11/23 06:30:23;;;;;;;;;;;;;;;-143.57;100.00;51442.16;5091872;28;20044;-65
2022/11/23 06:32:49;;;;;;;;;;;;;;;-143.57;100.00;51458.03;5070010;28;19935;-65
2022/11/23 06:35:18;;;;;;;;;;;;;;;-143.57;100.00;51462.03;5095378;28;20349;-65
2022/11/23 06:37:46;;;;;;;;;;;;;;;-143.57;100.00;51452.09;5075904;28;20018;-64
2022/11/23 06:40:13;;;;;;;;;;;;;;;-143.57;100.00;51485.88;5091069;28;19928;-64
2022/11/23 06:42:41;;;;;;;;;;;;;;;-143.57;100.00;51450.09;5076125;28;19944;-64
2022/11/23 06:45:17;;;;;;;;;;;;;;;-143.57;100.00;51473.94;5077934;28;19934;-64
2022/11/23 06:47:45;;;;;;;;;;;;;;;-143.57;100.00;51468.00;5094666;28;19935;-64
2022/11/23 06:50:13;;;;;;;;;;;;;;;-143.57;100.00;51471.97;5069995;28;19939;-64
2022/11/23 06:52:42;;;;;;;;;;;;;;;-143.57;100.00;51481.91;5074129;28;19932;-64
2022/11/23 06:55:09;;;;;;;;;;;;;;;-143.57;100.00;51466.00;5078263;28;19927;-64
2022/11/23 06:57:36;;;;;;;;;;;;;;;-143.57;100.00;51454.06;5077060;28;19939;-63
2022/11/23 07:00:04;;;;;;;;;;;;;;;-143.57;100.00;51481.91;5075578;28;19940;-64
2022/11/23 07:02:35;;;;;;;;;;;;;;;-143.57;100.00;51466.00;5078513;28;19932;-65
2022/11/23 07:05:01;;;;;;;;;;;;;;;-143.57;100.00;51485.88;5077317;28;19932;-65
2022/11/23 07:07:30;;;;;;;;;;;;;;;-143.57;100.00;51450.09;5074456;28;19924;-65
2022/11/23 07:10:09;;;;;;;;;;;;;;;-143.57;100.00;51477.94;5072641;28;19939;-65
2022/11/23 07:12:44;;;;;;;;;;;;;;;-143.57;100.00;51462.03;5082731;28;19988;-66
2022/11/23 07:15:13;;;;;;;;;;;;;;;-143.57;100.00;51489.84;5078559;28;19931;-66
2022/11/23 07:17:41;;;;;;;;;;;;;;;-143.57;100.00;51466.00;5073573;28;19928;-65
2022/11/23 07:20:10;;;;;;;;;;;;;;;-143.57;100.00;51493.84;5072044;28;19947;-66
2022/11/23 07:22:37;;;;;;;;;;;;;;;-143.57;100.00;51464.00;5079996;28;19956;-64
2022/11/23 07:25:04;;;;;;;;;;;;;;;-143.57;100.00;51454.06;5081608;28;19951;-64
2022/11/23 07:27:31;;;;;;;;;;;;;;;-143.57;100.00;51473.94;5079457;28;20088;-65
2022/11/23 07:29:59;;;;;;;;;;;;;;;-143.57;100.00;51468.00;5076660;28;20376;-65
2022/11/23 07:32:26;;;;;;;;;;;;;;;-143.57;100.00;51489.84;5082087;28;21360;-65
2022/11/23 07:34:53;;;;;;;;;;;;;;;-143.57;100.00;51489.84;5100515;27;20568;-65
2022/11/23 07:37:19;;;;;;;;;;;;;;;-143.57;100.00;51450.09;5076291;28;19928;-65
2022/11/23 07:39:46;;;;;;;;;;;;;;;-143.57;100.00;51485.88;5077825;28;19924;-65
2022/11/23 07:42:30;;;;;;;;;;;;;;;-143.57;100.00;51430.22;5093693;27;19932;-65
2022/11/23 07:45:05;;;;;;;;;;;;;;;-143.57;100.00;51481.91;5078967;28;20040;-65
2022/11/23 07:47:32;;;;;;;;;;;;;;;-143.57;100.00;51446.13;5077655;28;20334;-65
2022/11/23 07:49:59;;;;;;;;;;;;;;;-143.57;100.00;51479.91;5079106;28;19924;-64
2022/11/23 07:52:26;;;;;;;;;;;;;;;-143.57;100.00;51450.09;5081116;28;19928;-65
2022/11/23 07:54:52;;;;;;;;;;;;;;;-143.57;100.00;51462.03;5076770;28;19924;-65
2022/11/23 07:57:19;;;;;;;;;;;;;;;-143.57;100.00;51473.94;5077980;28;19937;-65
2022/11/23 07:59:46;;;;;;;;;;;;;;;-143.57;100.00;51466.00;5080891;28;19928;-65
2022/11/23 08:02:13;;;;;;;;;;;;;;;-143.57;100.00;51489.84;5077624;28;20041;-65
2022/11/23 08:04:40;;;;;;;;;;;;;;;-143.57;100.00;51497.81;5077094;28;19943;-64
2022/11/23 08:07:07;;;;;;;;;;;;;;;-143.57;100.00;51438.16;5079009;28;20361;-65
2022/11/23 08:09:33;;;;;;;;;;;;;;;-143.57;100.00;51408.34;5080710;28;20019;-65
2022/11/23 08:12:00;;;;;;;;;;;;;;;-143.57;100.00;51462.03;5078519;28;19954;-65
2022/11/23 08:14:27;;;;;;;;;;;;;;;-143.57;100.00;51481.91;5090181;27;19954;-65
2022/11/23 08:16:53;;;;;;;;;;;;;;;-143.57;100.00;51468.00;5083466;28;20687;-65
2022/11/23 08:19:20;;;;;;;;;;;;;;;-143.57;100.00;51464.00;5079179;28;19928;-64
2022/11/23 08:21:47;;;;;;;;;;;;;;;-143.57;100.00;51466.00;5078376;28;19928;-65
2022/11/23 08:24:13;;;;;;;;;;;;;;;-143.57;100.00;51458.03;5080586;28;20406;-65
2022/11/23 08:26:40;;;;;;;;;;;;;;;-143.57;100.00;51469.97;5081342;28;19924;-65
2022/11/23 08:29:06;;;;;;;;;;;;;;;-143.57;100.00;51468.00;5088680;28;20027;-64
2022/11/23 08:31:33;;;;;;;;;;;;;;;-143.57;100.00;51481.91;5081650;28;19928;-63
2022/11/23 08:34:00;;;;;;;;;;;;;;;-143.57;100.00;51469.97;5076506;28;19931;-65
2022/11/23 08:36:29;;;;;;;;;;;;;;;-143.57;100.00;51487.88;5079716;28;20011;-64
2022/11/23 08:38:55;;;;;;;;;;;;;;;-143.57;100.00;51481.91;5084892;28;20489;-64
2022/11/23 08:41:22;;;;;;;;;;;;;;;-143.57;100.00;51469.97;5074905;28;19936;-64
2022/11/23 08:43:49;;;;;;;;;;;;;;;-143.57;100.00;51487.88;5080807;28;19924;-64
2022/11/23 08:46:16;;;;;;;;;;;;;;;-143.57;100.00;51485.88;5076132;28;19924;-64
2022/11/23 08:48:43;;;;;;;;;;;;;;;-143.57;100.00;51462.03;5079256;28;19928;-64
2022/11/23 08:51:10;;;;;;;;;;;;;;;-143.57;100.00;51458.03;5075623;28;19940;-64
2022/11/23 08:53:36;;;;;;;;;;;;;;;-143.57;100.00;51440.16;5075367;28;19932;-64
2022/11/23 08:56:04;;;;;;;;;;;;;;;-143.57;100.00;51473.94;5082097;28;20008;-64
2022/11/23 08:58:31;;;;;;;;;;;;;;;-143.57;100.00;51444.13;5076126;28;19946;-64
2022/11/23 09:00:58;;;;;;;;;;;;;;;-143.57;100.00;51442.16;5079873;28;20785;-64
2022/11/23 09:03:24;;;;;;;;;;;;;;;-143.57;100.00;51446.13;5073472;28;19925;-64
2022/11/23 09:05:53;;;;;;;;;;;;;;;-143.57;100.00;51454.06;5079136;28;19928;-64
2022/11/23 09:08:19;;;;;;;;;;;;;;;-143.57;100.00;51454.06;5076622;28;20537;-64
2022/11/23 09:10:46;;;;;;;;;;;;;;;-143.57;100.00;51473.94;5082124;28;19982;-64
2022/11/23 09:13:13;;;;;;;;;;;;;;;-143.57;100.00;51434.19;5074135;28;20537;-64
2022/11/23 09:15:39;;;;;;;;;;;;;;;-143.57;100.00;51466.00;5078820;28;21087;-64
2022/11/23 09:18:06;;;;;;;;;;;;;;;-143.57;100.00;51446.13;5079835;28;19928;-64
2022/11/23 09:20:33;;;;;;;;;;;;;;;-143.57;100.00;51438.16;5078892;28;19931;-63
2022/11/23 09:22:59;;;;;;;;;;;;;;;-143.57;100.00;51434.19;5076243;28;20643;-64
2022/11/23 09:25:26;;;;;;;;;;;;;;;-143.57;100.00;51469.97;5075322;28;19931;-64
2022/11/23 09:27:57;;;;;;;;;;;;;;;-143.57;100.00;51436.19;5080540;28;19954;-64
2022/11/23 09:30:24;;;;;;;;;;;;;;;-143.57;100.00;51475.94;5077999;28;19928;-64
2022/11/23 09:32:51;;;;;;;;;;;;;;;-143.57;100.00;51473.94;5079098;28;19981;-64
2022/11/23 09:35:17;;;;;;;;;;;;;;;-143.57;100.00;51434.19;5073261;28;19924;-65
2022/11/23 09:37:44;;;;;;;;;;;;;;;-143.57;100.00;51458.03;5078208;28;19950;-65
2022/11/23 09:40:16;;;;;;;;;;;;;;;-143.57;100.00;51450.09;5076960;28;19993;-64
2022/11/23 09:42:45;;;;;;;;;;;;;;;-143.57;100.00;51462.03;5078870;28;19934;-63
2022/11/23 09:45:19;;;;;;;;;;;;;;;-143.57;100.00;51454.06;5074507;28;19970;-64
2022/11/23 09:47:46;;;;;;;;;;;;;;;-143.57;100.00;51462.03;5079634;28;19985;-64
2022/11/23 09:50:13;;;;;;;;;;;;;;;-143.57;100.00;51458.03;5081443;28;20567;-64
2022/11/23 09:52:43;;;;;;;;;;;;;;;-143.57;100.00;51446.13;5078677;28;19924;-64
2022/11/23 09:55:13;;;;;;;;;;;;;;;-143.57;100.00;51458.03;5077734;28;20266;-63
2022/11/23 09:57:40;;;;;;;;;;;;;;;-143.57;100.00;51442.16;5090915;28;19993;-63
2022/11/23 10:00:19;;;;;;;;;;;;;;;-143.57;100.00;51430.22;5086443;28;20246;-63
2022/11/23 10:02:46;;;;;;;;;;;;;;;-143.57;100.00;51469.97;5085739;28;19976;-64
2022/11/23 10:05:21;;;;;;;;;;;;;;;-143.57;100.00;51438.16;5079257;28;20540;-64
2022/11/23 10:07:51;;;;;;;;;;;;;;;-143.57;100.00;51434.19;5087656;28;20021;-64
2022/11/23 10:10:36;;;;;;;;;;;;;;;-143.57;100.00;51438.16;5082404;28;20389;-64
2022/11/23 10:13:15;;;;;;;;;;;;;;;-143.57;100.00;51434.19;5078745;28;19960;-63
2022/11/23 10:15:54;;;;;;;;;;;;;;;-143.57;100.00;51428.22;5087092;28;20815;-64
2022/11/23 10:18:20;;;;;;;;;;;;;;;-143.57;100.00;51442.16;5086875;28;19924;-63
2022/11/23 10:21:06;;;;;;;;;;;;;;;-143.57;100.00;51402.38;5090698;28;20013;-63
2022/11/23 10:23:50;;;;;;;;;;;;;;;-143.57;100.00;51450.09;5080663;28;19936;-64
2022/11/23 10:26:18;;;;;;;;;;;;;;;-143.57;100.00;51434.19;5087486;28;19924;-64
2022/11/23 10:28:45;;;;;;;;;;;;;;;-143.57;100.00;51422.25;5083465;28;19928;-63
2022/11/23 10:31:15;;;;;;;;;;;;;;;-143.57;100.00;51422.25;5079374;28;19968;-64
2022/11/23 10:34:02;;;;;;;;;;;;;;;-143.57;100.00;51422.25;5080935;28;19928;-64
2022/11/23 10:36:28;;;;;;;;;;;;;;;-143.57;100.00;51418.28;5068097;28;20605;-64
2022/11/23 10:38:59;;;;;;;;;;;;;;;-143.57;100.00;51464.00;5080014;28;20018;-64
2022/11/23 10:41:28;;;;;;;;;;;;;;;-143.57;100.00;51442.16;5076087;28;19931;-63
2022/11/23 10:43:59;;;;;;;;;;;;;;;-143.57;100.00;51414.31;5078010;28;20395;-65
2022/11/23 10:46:28;;;;;;;;;;;;;;;-143.57;100.00;51418.28;5080984;28;19928;-65
2022/11/23 10:48:54;;;;;;;;;;;;;;;-143.57;100.00;51430.22;5078117;28;20327;-64
2022/11/23 10:51:30;;;;;;;;;;;;;;;-143.57;100.00;51404.38;5080339;28;19928;-64
2022/11/23 10:54:17;;;;;;;;;;;;;;;-143.57;100.00;51444.13;5090712;28;20043;-64
2022/11/23 10:56:45;;;;;;;;;;;;;;;-143.57;100.00;51426.25;5086960;28;20449;-64
2022/11/23 10:59:24;;;;;;;;;;;;;;;-143.57;100.00;51414.31;5084980;28;19939;-66
2022/11/23 11:02:00;;;;;;;;;;;;;;;-143.57;100.00;51414.31;5083305;28;19928;-66
2022/11/23 11:04:27;;;;;;;;;;;;;;;-143.57;100.00;51434.19;5079288;28;19928;-66
2022/11/23 11:07:09;;;;;;;;;;;;;;;-143.57;100.00;51406.34;5079551;28;19934;-66
2022/11/23 11:09:35;;;;;;;;;;;;;;;-143.57;100.00;51402.38;5076109;28;20028;-66
2022/11/23 11:12:02;;;;;;;;;;;;;;;-143.57;100.00;51422.25;5085798;28;19981;-66
2022/11/23 11:14:29;;;;;;;;;;;;;;;-143.57;100.00;51406.34;5081053;28;19928;-66
2022/11/23 11:17:21;;;;;;;;;;;;;;;-143.57;100.00;51422.25;5075968;28;19928;-65
2022/11/23 11:19:48;;;;;;;;;;;;;;;-143.57;100.00;51418.28;5083358;28;20217;-65
2022/11/23 11:22:26;;;;;;;;;;;;;;;-143.57;100.00;51438.16;5078778;28;19932;-66
2022/11/23 11:24:53;;;;;;;;;;;;;;;-143.57;100.00;51410.34;5085241;28;19989;-64
2022/11/23 11:27:21;;;;;;;;;;;;;;;-143.57;100.00;51410.34;5076289;28;19929;-66
2022/11/23 11:29:49;;;;;;;;;;;;;;;-143.57;100.00;51426.25;5081838;28;19924;-65
2022/11/23 11:32:16;;;;;;;;;;;;;;;-143.57;100.00;51406.34;5079505;28;20438;-65
2022/11/23 11:34:52;;;;;;;;;;;;;;;-143.57;100.00;51424.25;5079993;28;19962;-65
2022/11/23 11:37:30;;;;;;;;;;;;;;;-143.57;100.00;51398.41;5080012;28;20658;-65
2022/11/23 11:40:01;;;;;;;;;;;;;;;-143.57;100.00;51378.53;5085982;28;19928;-65
2022/11/23 11:42:33;;;;;;;;;;;;;;;-143.57;100.00;51394.44;5077921;28;19928;-65
2022/11/23 11:45:02;;;;;;;;;;;;;;;-143.57;100.00;51446.13;5082622;28;19935;-65
2022/11/23 11:47:35;;;;;;;;;;;;;;;-143.57;100.00;51406.34;5075738;28;20026;-65
2022/11/23 11:50:13;;;;;;;;;;;;;;;-143.57;100.00;51388.47;5079593;28;19977;-65
2022/11/23 11:52:42;;;;;;;;;;;;;;;-143.57;100.00;51404.38;5076610;28;19929;-65
2022/11/23 11:55:26;;;;;;;;;;;;;;;-143.57;68.20;51366.59;5078051;28;19928;-65
2022/11/23 11:58:14;;;;;;;;;;;;;;;-143.57;70.06;51414.31;5075117;28;19954;-65
2022/11/23 12:00:41;;;;;;;;;;;;;;;-143.57;73.09;51410.34;5084701;28;20019;-65
2022/11/23 12:03:29;;;;;;;;;;;;;;;-143.57;72.52;51372.56;5080450;28;19936;-65
2022/11/23 12:06:02;;;;;;;;;;;;;;;-143.57;74.90;51402.38;5076605;28;20000;-65
2022/11/23 12:08:48;;;;;;;;;;;;;;;-143.57;72.55;51414.31;5081715;28;20689;-65
2022/11/23 12:11:15;;;;;;;;;;;;;;;-143.57;73.14;51410.34;5083154;28;19932;-64
2022/11/23 12:13:43;;;;;;;;;;;;;;;-143.57;72.63;51434.19;5080371;28;19932;-65
2022/11/23 12:16:28;;;;;;;;;;;;;;;-143.57;72.07;51434.19;5076998;28;19932;-64
2022/11/23 12:18:56;;;;;;;;;;;;;;;-143.57;74.75;51386.47;5078216;28;20558;-64
2022/11/23 12:21:34;;;;;;;;;;;;;;;-143.57;74.52;51402.38;5074926;28;19942;-65
2022/11/23 12:24:15;;;;;;;;;;;;;;;-143.57;72.16;51420.28;5078079;28;19924;-64
2022/11/23 12:26:48;;;;;;;;;;;;;;;-143.57;70.02;51446.13;5075185;28;19928;-64
2022/11/23 12:29:50;;;;;;;;;;;;;;;-143.57;62.68;51398.41;5078478;28;20631;-65
2022/11/23 12:32:23;;;;;;;;;;;;;;;-143.57;58.50;51418.28;5004181;28;20040;-66